Heat Index [SAI AWOS/ASOS Display]_________FAA Disclaimer: "Not for use in aviation at this time______________" Untitled Document
Indianapolis Executive Airport IN
230
03:48
17/10/24
10
N/A
N/A
29.71
N/A
922
48(F), 9(C)
47(F), 8(C)
44 F
93%
SCT008 OVC060
10
Drizzle
N/A
N/A
03:48 zulu Wind 230 at 10 Knots, Altimeter 29.71
METAR KTYQ 240348Z AUTO 23010KT 10SM DZ SCT008 OVC060 09/08 A2971 A02
METAR:
FAA Disclaimer--Advisory Use ONLY, not for flight info-- 2/21/2009: Airport FBO 317-769-3288... New URL for smartphones... http://www.saiawos2.com/TYQ
INFO:
Wind Direction:
Wind Speed:
Wind Gust:
Wind Variable:
Altimeter:
Dens Alt:
Elev:
Temp:
Dwpt:
Wind Chill
Rel Humidity:
Ceiling:
Visibility:
Prsnt Wea:
PCPN:
Remarks:
How to read the WebPage